createdAt,value
2018-12-07T00:02:01.605Z,26.73
2018-12-07T00:04:33.869Z,24.73
2018-12-07T00:07:06.106Z,30.37
2018-12-07T00:09:38.263Z,22.97
2018-12-07T00:12:10.352Z,22.07
2018-12-07T00:14:42.514Z,30.77
2018-12-07T00:17:15.191Z,25.57
2018-12-07T00:19:48.118Z,24.47
2018-12-07T00:22:20.644Z,21.40
2018-12-07T00:24:52.801Z,25.70
2018-12-07T00:27:24.992Z,22.50
2018-12-07T00:29:57.144Z,21.33
2018-12-07T00:32:29.305Z,23.43
2018-12-07T00:35:01.463Z,25.50
2018-12-07T00:37:34.602Z,21.37
2018-12-07T00:40:06.996Z,20.47
2018-12-07T00:42:39.208Z,18.03
2018-12-07T00:45:11.431Z,21.53
2018-12-07T00:47:43.504Z,24.03
2018-12-07T00:50:15.697Z,18.83
2018-12-07T00:52:47.739Z,24.53
2018-12-07T00:55:31.440Z,23.83
2018-12-07T00:58:03.605Z,19.00
2018-12-07T01:00:35.848Z,18.70
2018-12-07T01:03:08.027Z,20.63
2018-12-07T01:05:40.381Z,19.63
2018-12-07T01:08:12.456Z,27.27
2018-12-07T01:10:44.649Z,16.90
2018-12-07T01:13:16.808Z,22.63
2018-12-07T01:15:49.001Z,19.67
2018-12-07T01:18:21.175Z,22.00
2018-12-07T01:20:53.385Z,15.07
2018-12-07T01:23:25.543Z,18.17
2018-12-07T01:25:57.738Z,22.57
2018-12-07T01:28:29.911Z,18.47
2018-12-07T01:31:02.136Z,19.17
2018-12-07T01:33:34.292Z,16.53
2018-12-07T01:36:06.522Z,19.17
2018-12-07T01:38:38.676Z,18.53
2018-12-07T01:41:10.759Z,20.73
2018-12-07T01:43:42.923Z,20.47
2018-12-07T01:46:15.112Z,22.67
2018-12-07T01:48:47.301Z,14.73
2018-12-07T01:51:19.490Z,18.00
2018-12-07T01:53:51.557Z,18.43
2018-12-07T01:56:23.854Z,17.73
2018-12-07T01:58:56.080Z,20.57
2018-12-07T02:01:28.265Z,20.37
2018-12-07T02:04:00.466Z,22.17
2018-12-07T02:06:32.668Z,18.80
2018-12-07T02:09:07.259Z,20.37
2018-12-07T02:11:39.405Z,20.40
2018-12-07T02:14:11.611Z,17.57
2018-12-07T02:16:43.868Z,18.90
2018-12-07T02:19:16.053Z,17.63
2018-12-07T02:21:48.232Z,19.77
2018-12-07T02:24:20.457Z,19.27
2018-12-07T02:26:52.635Z,22.87
2018-12-07T02:29:24.724Z,17.50
2018-12-07T02:31:56.879Z,18.47
2018-12-07T02:34:29.045Z,22.73
2018-12-07T02:37:01.258Z,20.33
2018-12-07T02:39:33.440Z,22.90
2018-12-07T02:42:05.600Z,29.67
2018-12-07T02:44:37.814Z,21.77
2018-12-07T02:47:09.957Z,24.53
2018-12-07T02:49:42.141Z,27.90
2018-12-07T02:52:14.341Z,31.23
2018-12-07T02:54:46.670Z,28.07
2018-12-07T02:57:18.887Z,33.30
2018-12-07T02:59:51.126Z,27.90
2018-12-07T03:02:23.357Z,31.87
2018-12-07T03:04:55.447Z,30.47
2018-12-07T03:07:27.648Z,38.60
2018-12-07T03:09:59.685Z,28.00
2018-12-07T03:12:31.760Z,28.00
2018-12-07T03:15:04.940Z,28.77
2018-12-07T03:17:37.127Z,25.30
2018-12-07T03:20:09.276Z,27.70
2018-12-07T03:22:42.164Z,23.57
2018-12-07T03:25:14.252Z,25.77
2018-12-07T03:27:46.400Z,25.23
2018-12-07T03:30:18.596Z,30.07
2018-12-07T03:32:50.813Z,23.23
2018-12-07T03:35:22.983Z,24.53
2018-12-07T03:37:55.180Z,26.60
2018-12-07T03:40:27.329Z,26.07
2018-12-07T03:42:59.560Z,21.70
2018-12-07T03:45:31.661Z,22.17
2018-12-07T03:48:03.752Z,20.97
2018-12-07T03:50:35.793Z,26.63
2018-12-07T03:53:07.970Z,20.93
2018-12-07T03:55:40.152Z,27.43
2018-12-07T03:58:12.341Z,23.03
2018-12-07T04:00:44.558Z,21.70
2018-12-07T04:03:16.756Z,21.40
2018-12-07T04:05:48.801Z,22.37
2018-12-07T04:08:20.988Z,23.20
2018-12-07T04:10:53.179Z,22.87
2018-12-07T04:13:25.284Z,24.60
2018-12-07T04:15:57.425Z,22.20
2018-12-07T04:18:29.618Z,23.07
2018-12-07T04:21:01.808Z,22.87
2018-12-07T04:23:33.986Z,30.67
2018-12-07T04:26:06.170Z,22.93
2018-12-07T04:28:38.383Z,28.10
2018-12-07T04:31:10.644Z,25.13
2018-12-07T04:33:42.712Z,26.93
2018-12-07T04:36:14.985Z,26.70
2018-12-07T04:38:47.252Z,21.97
2018-12-07T04:41:20.551Z,27.77
2018-12-07T04:43:52.776Z,24.10
2018-12-07T04:46:24.969Z,24.60
2018-12-07T04:48:57.181Z,35.47
2018-12-07T04:51:29.339Z,27.13
2018-12-07T04:54:01.511Z,33.07
2018-12-07T04:56:33.871Z,24.47
2018-12-07T04:59:06.413Z,29.53
2018-12-07T05:01:38.594Z,28.07
2018-12-07T05:04:14.205Z,34.07
2018-12-07T05:06:46.764Z,30.37
2018-12-07T05:09:18.934Z,35.37
2018-12-07T05:11:51.132Z,27.60
2018-12-07T05:14:23.753Z,31.20
2018-12-07T05:16:56.138Z,37.13
2018-12-07T05:19:28.304Z,30.13
2018-12-07T05:22:01.005Z,44.00
2018-12-07T05:24:34.585Z,43.43
2018-12-07T05:27:07.083Z,35.50
2018-12-07T05:29:39.245Z,38.57
2018-12-07T05:32:11.461Z,36.33
2018-12-07T05:34:43.712Z,36.30
2018-12-07T05:37:15.962Z,36.17
2018-12-07T05:39:48.148Z,52.90
2018-12-07T05:42:20.337Z,36.13
2018-12-07T05:44:53.033Z,41.37
2018-12-07T05:47:25.316Z,46.03
2018-12-07T05:49:57.443Z,37.13
2018-12-07T05:52:29.702Z,45.00
2018-12-07T05:55:01.917Z,37.50
2018-12-07T05:57:34.101Z,36.30
2018-12-07T06:00:07.396Z,42.80
2018-12-07T06:02:39.685Z,34.33
2018-12-07T06:05:11.890Z,36.33
2018-12-07T06:07:44.279Z,29.53
2018-12-07T06:10:16.503Z,43.27
2018-12-07T06:12:53.159Z,37.23
2018-12-07T06:15:26.526Z,32.00
2018-12-07T06:17:58.765Z,33.33
2018-12-07T06:23:11.005Z,32.63
2018-12-07T06:25:43.206Z,38.87
2018-12-07T06:28:15.249Z,35.90
2018-12-07T06:30:47.505Z,42.17
2018-12-07T06:33:19.589Z,41.63
2018-12-07T06:35:51.869Z,40.97
2018-12-07T06:38:24.194Z,38.23
2018-12-07T06:40:56.488Z,40.73
2018-12-07T06:43:28.549Z,29.03
2018-12-07T06:46:00.759Z,37.50
2018-12-07T06:48:33.004Z,32.07
2018-12-07T06:51:05.215Z,35.67
2018-12-07T06:53:37.456Z,34.50
2018-12-07T06:56:09.653Z,34.70
2018-12-07T06:58:41.956Z,37.90
2018-12-07T07:01:14.077Z,32.67
2018-12-07T07:03:46.215Z,36.67
2018-12-07T07:06:18.416Z,33.93
2018-12-07T07:08:50.735Z,29.57
2018-12-07T07:11:22.942Z,36.63
2018-12-07T07:13:55.133Z,28.03
2018-12-07T07:16:27.345Z,31.93
2018-12-07T07:18:59.510Z,27.90
2018-12-07T07:21:31.760Z,29.57
2018-12-07T07:24:04.008Z,30.23
2018-12-07T07:26:36.229Z,27.53
2018-12-07T07:29:08.512Z,31.33
2018-12-07T07:31:43.617Z,29.33
2018-12-07T07:34:15.252Z,25.57
2018-12-07T07:36:47.475Z,27.30
2018-12-07T07:39:19.679Z,25.53
2018-12-07T07:41:51.917Z,27.43
2018-12-07T07:44:24.182Z,25.57
2018-12-07T07:46:56.401Z,24.33
2018-12-07T07:49:28.606Z,26.77
2018-12-07T07:52:00.745Z,23.00
2018-12-07T07:54:32.942Z,22.73
2018-12-07T07:57:05.060Z,24.70
2018-12-07T07:59:37.215Z,23.03
2018-12-07T08:02:09.380Z,20.60
2018-12-07T08:04:41.614Z,21.70
2018-12-07T08:07:13.740Z,17.27
2018-12-07T08:09:45.989Z,18.67
2018-12-07T08:12:18.239Z,23.50
2018-12-07T08:14:50.500Z,23.43
2018-12-07T08:17:22.719Z,17.03
2018-12-07T08:19:54.948Z,14.03
2018-12-07T08:22:27.177Z,17.97
2018-12-07T08:24:59.400Z,15.20
2018-12-07T08:27:31.680Z,13.97
2018-12-07T08:30:06.198Z,14.33
2018-12-07T08:32:38.436Z,13.47
2018-12-07T08:35:10.557Z,12.70
2018-12-07T08:37:42.767Z,17.13
2018-12-07T08:40:15.030Z,15.77
2018-12-07T08:42:47.223Z,12.20
2018-12-07T08:45:19.445Z,15.47
2018-12-07T08:47:51.653Z,13.70
2018-12-07T08:50:23.960Z,16.27
2018-12-07T08:52:56.175Z,14.47
2018-12-07T08:55:31.420Z,12.10
2018-12-07T08:58:03.593Z,13.03
2018-12-07T09:00:35.808Z,16.97
2018-12-07T09:03:08.028Z,12.97
2018-12-07T09:05:40.247Z,11.37
2018-12-07T09:08:15.305Z,8.97
2018-12-07T09:10:46.639Z,8.13
2018-12-07T09:13:18.926Z,8.23
2018-12-07T09:15:51.191Z,12.07
2018-12-07T09:18:23.413Z,9.37
2018-12-07T09:20:55.557Z,9.37
2018-12-07T09:23:27.767Z,6.13
2018-12-07T09:25:59.936Z,8.07
2018-12-07T09:28:32.125Z,9.27
2018-12-07T09:31:04.417Z,7.77
2018-12-07T09:33:36.669Z,6.43
2018-12-07T09:36:08.863Z,8.33
2018-12-07T09:38:41.101Z,7.10
2018-12-07T09:41:13.374Z,7.47
2018-12-07T09:43:45.520Z,9.63
2018-12-07T09:46:17.627Z,7.80
2018-12-07T09:48:49.737Z,4.80
2018-12-07T09:51:21.892Z,9.00
2018-12-07T09:53:54.167Z,4.00
2018-12-07T09:56:26.334Z,7.63
2018-12-07T09:58:58.612Z,3.73
2018-12-07T10:01:30.775Z,7.33
2018-12-07T10:04:03.032Z,10.40
2018-12-07T10:06:35.196Z,3.53
2018-12-07T10:09:07.600Z,9.77
2018-12-07T10:11:39.681Z,4.23
2018-12-07T10:14:11.876Z,3.30
2018-12-07T10:16:44.094Z,2.73
2018-12-07T10:19:16.293Z,4.00
2018-12-07T10:21:48.373Z,2.77
2018-12-07T10:24:20.452Z,2.27
2018-12-07T10:26:52.716Z,4.00
2018-12-07T10:29:24.929Z,3.30
2018-12-07T10:31:57.113Z,2.50
2018-12-07T10:34:29.287Z,2.43
2018-12-07T10:37:01.501Z,1.70
2018-12-07T10:39:33.688Z,5.93
2018-12-07T10:42:05.895Z,3.03
2018-12-07T10:44:38.096Z,3.00
2018-12-07T10:47:10.280Z,2.73
2018-12-07T10:49:42.330Z,6.00
2018-12-07T10:52:14.529Z,5.77
2018-12-07T10:54:46.764Z,8.47
2018-12-07T10:57:19.064Z,7.77
2018-12-07T10:59:51.247Z,6.33
2018-12-07T11:02:29.297Z,5.17
2018-12-07T11:05:07.286Z,4.90
2018-12-07T11:07:45.272Z,5.57
2018-12-07T11:10:23.216Z,3.43
2018-12-07T11:13:01.132Z,5.13
2018-12-07T11:17:44.220Z,5.93
2018-12-07T11:20:22.156Z,2.83
2018-12-07T11:23:00.119Z,3.70
2018-12-07T11:25:38.159Z,3.00
2018-12-07T11:28:16.097Z,5.07
2018-12-07T11:30:54.061Z,2.30
2018-12-07T11:33:32.840Z,2.40
2018-12-07T11:36:08.274Z,3.77
2018-12-07T11:38:39.348Z,4.53
2018-12-07T11:41:11.584Z,2.67
2018-12-07T11:43:43.768Z,5.37
2018-12-07T11:46:16.001Z,2.10
2018-12-07T11:48:48.187Z,2.43
2018-12-07T11:51:20.381Z,4.20
2018-12-07T11:53:52.557Z,2.50
2018-12-07T11:56:24.601Z,2.20
2018-12-07T11:58:56.665Z,1.63
2018-12-07T12:01:30.133Z,3.30
2018-12-07T12:04:02.656Z,2.37
2018-12-07T12:06:34.852Z,3.03
2018-12-07T12:09:07.285Z,2.87
2018-12-07T12:11:39.383Z,5.23
2018-12-07T12:14:11.548Z,2.90
2018-12-07T12:16:43.727Z,4.27
2018-12-07T12:19:15.884Z,7.60
2018-12-07T12:21:48.116Z,6.00
2018-12-07T12:24:20.480Z,9.03
2018-12-07T12:26:52.833Z,6.20
2018-12-07T12:29:25.010Z,3.57
2018-12-07T12:31:57.198Z,3.60
2018-12-07T12:34:29.351Z,6.50
2018-12-07T12:37:01.450Z,8.13
2018-12-07T12:39:33.601Z,9.67
2018-12-07T12:42:05.846Z,8.00
2018-12-07T12:44:38.051Z,6.73
2018-12-07T12:47:10.380Z,5.43
2018-12-07T12:49:42.556Z,7.07
2018-12-07T12:52:14.712Z,9.57
2018-12-07T12:54:46.896Z,9.67
2018-12-07T12:57:19.035Z,8.50
2018-12-07T12:59:51.231Z,10.93
2018-12-07T13:02:23.308Z,9.57
2018-12-07T13:04:55.513Z,9.30
2018-12-07T13:07:27.706Z,10.17
2018-12-07T13:09:59.952Z,5.83
2018-12-07T13:12:32.148Z,7.37
2018-12-07T13:15:04.497Z,9.47
2018-12-07T13:17:36.711Z,4.77
2018-12-07T13:20:08.924Z,7.50
2018-12-07T13:22:41.241Z,7.23
2018-12-07T13:25:13.464Z,4.33
2018-12-07T13:27:45.673Z,3.00
2018-12-07T13:30:17.897Z,4.90
2018-12-07T13:32:50.079Z,2.83
2018-12-07T13:35:22.190Z,2.77
2018-12-07T13:37:54.412Z,5.27
2018-12-07T13:40:26.631Z,4.30
2018-12-07T13:42:58.992Z,7.00
2018-12-07T13:45:31.514Z,1.83
2018-12-07T13:48:04.004Z,2.90
2018-12-07T13:50:40.903Z,5.90
2018-12-07T13:53:13.201Z,2.93
2018-12-07T13:55:45.574Z,8.40
2018-12-07T13:58:17.980Z,4.10
2018-12-07T14:00:50.320Z,5.77
2018-12-07T14:03:22.477Z,5.00
2018-12-07T14:05:54.567Z,7.87
2018-12-07T14:08:26.779Z,3.40
2018-12-07T14:10:59.066Z,4.40
2018-12-07T14:13:31.580Z,4.87
2018-12-07T14:16:04.001Z,6.37
2018-12-07T14:18:36.407Z,7.20
2018-12-07T14:21:08.829Z,3.97
2018-12-07T14:23:41.138Z,3.87
2018-12-07T14:26:13.615Z,8.27
2018-12-07T14:28:45.851Z,8.97
2018-12-07T14:31:18.088Z,6.53
2018-12-07T14:33:50.215Z,6.93
2018-12-07T14:36:22.567Z,12.70
2018-12-07T14:38:54.960Z,9.00
2018-12-07T14:41:27.372Z,7.50
2018-12-07T14:44:00.192Z,7.37
2018-12-07T14:46:32.690Z,6.60
2018-12-07T14:49:05.164Z,12.30
2018-12-07T14:51:37.517Z,10.00
2018-12-07T14:54:09.931Z,13.63
2018-12-07T14:56:42.318Z,5.97
2018-12-07T14:59:14.583Z,7.30
2018-12-07T15:01:46.827Z,8.23
2018-12-07T15:04:19.201Z,10.60
2018-12-07T15:06:51.539Z,6.20
2018-12-07T15:09:23.727Z,5.03
2018-12-07T15:11:56.175Z,6.37
2018-12-07T15:14:28.600Z,11.30
2018-12-07T15:17:01.134Z,7.43
2018-12-07T15:19:34.205Z,5.90
2018-12-07T15:22:06.503Z,6.90
2018-12-07T15:24:38.708Z,8.87
2018-12-07T15:27:10.836Z,9.57
2018-12-07T15:29:43.179Z,9.37
2018-12-07T15:32:15.873Z,6.43
2018-12-07T15:34:48.169Z,7.23
2018-12-07T15:37:20.539Z,7.10
2018-12-07T15:39:53.054Z,3.37
2018-12-07T15:42:25.460Z,4.97
2018-12-07T15:44:57.986Z,7.73
2018-12-07T15:47:30.618Z,6.20
2018-12-07T15:50:03.609Z,6.97
2018-12-07T15:52:35.965Z,12.23
2018-12-07T15:55:08.291Z,5.83
2018-12-07T15:57:40.872Z,7.20
2018-12-07T16:00:13.197Z,6.23
2018-12-07T16:02:45.610Z,6.33
2018-12-07T16:05:17.901Z,3.57
2018-12-07T16:07:50.376Z,6.37
2018-12-07T16:10:22.827Z,4.17
2018-12-07T16:12:55.287Z,8.23
2018-12-07T16:15:27.583Z,9.63
2018-12-07T16:17:59.769Z,6.67
2018-12-07T16:20:32.455Z,5.33
2018-12-07T16:23:04.899Z,5.33
2018-12-07T16:25:37.269Z,4.40
2018-12-07T16:28:09.507Z,4.23
2018-12-07T16:30:41.760Z,5.50
2018-12-07T16:33:13.953Z,7.47
2018-12-07T16:35:46.203Z,8.50
2018-12-07T16:38:18.448Z,7.53
2018-12-07T16:40:50.867Z,5.93
2018-12-07T16:43:23.189Z,6.10
2018-12-07T16:45:55.440Z,5.97
2018-12-07T16:48:27.700Z,4.80
2018-12-07T16:50:59.939Z,8.10
2018-12-07T16:53:32.184Z,6.07
2018-12-07T16:56:05.170Z,8.97
2018-12-07T16:58:37.684Z,5.37
2018-12-07T17:01:10.062Z,7.37
2018-12-07T17:03:42.395Z,8.00
2018-12-07T17:06:14.882Z,14.90
2018-12-07T17:08:48.333Z,6.67
2018-12-07T17:11:20.701Z,8.80
2018-12-07T17:13:53.009Z,11.75
2018-12-07T17:16:25.348Z,7.27
2018-12-07T17:18:57.545Z,12.07
2018-12-07T17:21:29.754Z,11.33
2018-12-07T17:24:02.318Z,13.90
2018-12-07T17:26:34.885Z,9.07
2018-12-07T17:29:07.340Z,11.47
2018-12-07T17:31:39.509Z,8.83
2018-12-07T17:34:11.736Z,10.37
2018-12-07T17:36:44.233Z,9.13
2018-12-07T17:39:16.472Z,10.37
2018-12-07T17:41:48.833Z,11.00
2018-12-07T17:44:21.090Z,13.10
2018-12-07T17:46:53.318Z,10.60
2018-12-07T17:49:25.555Z,14.43
2018-12-07T17:51:57.948Z,12.00
2018-12-07T17:54:30.351Z,13.73
2018-12-07T17:57:02.725Z,14.63
2018-12-07T17:59:35.226Z,21.43
2018-12-07T18:02:07.801Z,14.63
2018-12-07T18:04:39.976Z,13.40
2018-12-07T18:07:12.170Z,13.67
2018-12-07T18:09:44.958Z,10.93
2018-12-07T18:12:17.185Z,10.97
2018-12-07T18:14:49.434Z,11.80
2018-12-07T18:17:21.646Z,5.87
2018-12-07T18:19:53.925Z,12.50
2018-12-07T18:22:26.257Z,7.77
2018-12-07T18:24:58.790Z,19.73
2018-12-07T18:27:31.061Z,11.17
2018-12-07T18:30:03.602Z,16.43
2018-12-07T18:32:35.930Z,12.07
2018-12-07T18:35:08.233Z,10.50
2018-12-07T18:37:40.569Z,14.47
2018-12-07T18:40:12.868Z,9.50
2018-12-07T18:42:45.164Z,20.43
2018-12-07T18:45:17.428Z,8.53
2018-12-07T18:47:49.870Z,15.40
2018-12-07T18:50:22.306Z,7.90
2018-12-07T18:52:54.815Z,15.37
2018-12-07T18:55:26.936Z,15.10
2018-12-07T18:57:59.209Z,11.40
2018-12-07T19:00:31.560Z,17.03
2018-12-07T19:03:04.072Z,13.33
2018-12-07T19:05:36.508Z,13.27
2018-12-07T19:08:08.580Z,15.00
2018-12-07T19:10:40.753Z,12.77
2018-12-07T19:13:13.038Z,13.70
2018-12-07T19:15:45.604Z,11.70
2018-12-07T19:18:18.036Z,15.40
2018-12-07T19:20:50.546Z,14.73
2018-12-07T19:23:22.792Z,8.47
2018-12-07T19:25:55.378Z,11.53
2018-12-07T19:28:27.803Z,10.10
2018-12-07T19:31:00.312Z,21.07
2018-12-07T19:33:32.853Z,13.00
2018-12-07T19:36:05.565Z,12.07
2018-12-07T19:38:37.793Z,8.33
2018-12-07T19:41:10.010Z,16.60
2018-12-07T19:43:42.253Z,14.93
2018-12-07T19:46:14.645Z,16.97
2018-12-07T19:48:47.336Z,10.07
2018-12-07T19:51:19.909Z,10.80
2018-12-07T19:53:52.303Z,11.87
2018-12-07T19:56:24.845Z,14.97
2018-12-07T19:58:57.396Z,10.07
2018-12-07T20:01:29.620Z,11.13
2018-12-07T20:04:01.974Z,10.10
2018-12-07T20:06:34.447Z,11.80
2018-12-07T20:09:07.188Z,11.40
2018-12-07T20:11:39.527Z,9.23
2018-12-07T20:14:11.834Z,11.93
2018-12-07T20:16:44.124Z,10.17
2018-12-07T20:19:16.544Z,7.37
2018-12-07T20:21:48.802Z,6.67
2018-12-07T20:24:21.072Z,8.13
2018-12-07T20:26:53.303Z,4.90
2018-12-07T20:29:25.817Z,6.33
2018-12-07T20:31:58.169Z,11.80
2018-12-07T20:34:30.456Z,8.03
2018-12-07T20:37:02.943Z,5.33
2018-12-07T20:39:35.223Z,4.70
2018-12-07T20:42:07.711Z,2.60
2018-12-07T20:44:39.820Z,7.37
2018-12-07T20:47:12.029Z,2.80
2018-12-07T20:49:44.200Z,1.60
2018-12-07T20:52:16.454Z,3.07
2018-12-07T20:54:48.909Z,3.30
2018-12-07T20:57:21.397Z,4.57
2018-12-07T20:59:53.661Z,5.40
2018-12-07T21:02:26.158Z,2.53
2018-12-07T21:05:03.862Z,3.80
2018-12-07T21:07:48.815Z,3.43
2018-12-07T21:11:05.429Z,5.83
2018-12-07T21:14:44.869Z,6.40
2018-12-07T21:17:23.710Z,1.80
2018-12-07T21:20:26.776Z,1.90
2018-12-07T21:22:59.101Z,2.63
2018-12-07T21:25:31.849Z,2.47
2018-12-07T21:28:05.352Z,3.47
2018-12-07T21:30:50.173Z,2.73
2018-12-07T21:35:04.315Z,2.07
2018-12-07T21:37:36.776Z,1.20
2018-12-07T21:40:14.342Z,0.90
2018-12-07T21:42:46.621Z,4.00
2018-12-07T21:45:18.912Z,2.13
2018-12-07T21:48:13.854Z,1.27
2018-12-07T21:50:50.066Z,1.67
2018-12-07T21:53:22.478Z,2.37
2018-12-07T21:55:54.769Z,1.33
2018-12-07T21:58:27.017Z,3.50
2018-12-07T22:00:59.541Z,1.03
2018-12-07T22:03:32.109Z,0.63
2018-12-07T22:06:04.676Z,0.70
2018-12-07T22:08:37.602Z,0.80
2018-12-07T22:11:10.058Z,0.47
2018-12-07T22:13:42.382Z,2.63
2018-12-07T22:16:14.616Z,2.00
2018-12-07T22:18:46.692Z,4.37
2018-12-07T22:21:19.596Z,0.37
2018-12-07T22:23:51.761Z,1.70
2018-12-07T22:26:24.470Z,2.07
2018-12-07T22:28:56.772Z,1.03
2018-12-07T22:31:29.324Z,1.13
2018-12-07T22:34:01.353Z,0.90
2018-12-07T22:36:33.927Z,1.23
2018-12-07T22:39:07.413Z,0.50
2018-12-07T22:41:39.652Z,0.77
2018-12-07T22:44:12.180Z,1.43
2018-12-07T22:46:44.524Z,1.80
2018-12-07T22:49:16.705Z,1.33
2018-12-07T22:51:48.892Z,0.83
2018-12-07T22:54:21.349Z,1.43
2018-12-07T22:56:53.610Z,3.67
2018-12-07T22:59:25.788Z,1.70
2018-12-07T23:01:57.976Z,2.17
2018-12-07T23:04:30.182Z,0.83
2018-12-07T23:07:02.273Z,4.60
2018-12-07T23:09:34.727Z,2.00
2018-12-07T23:12:06.892Z,0.70
2018-12-07T23:14:39.095Z,1.20
2018-12-07T23:17:11.248Z,3.80
2018-12-07T23:19:43.449Z,1.23
2018-12-07T23:22:15.600Z,0.50
2018-12-07T23:24:47.784Z,1.77
2018-12-07T23:27:19.979Z,1.57
2018-12-07T23:29:52.178Z,1.90
2018-12-07T23:32:24.435Z,3.33
2018-12-07T23:34:56.608Z,2.83
2018-12-07T23:37:28.780Z,0.47
2018-12-07T23:40:00.967Z,1.03
2018-12-07T23:42:33.190Z,0.83
2018-12-07T23:45:05.385Z,1.23
2018-12-07T23:47:37.628Z,1.83
2018-12-07T23:50:09.833Z,0.93
2018-12-07T23:52:42.033Z,1.17
2018-12-07T23:55:14.195Z,1.00
2018-12-07T23:57:46.588Z,0.73
